sensor_id;sensor_type;location;lat;lon;timestamp;temperature;humidity
45945;DHT22;31655;48.972;10.686;2024-03-02T00:01:56;5.60;99.90
45945;DHT22;31655;48.972;10.686;2024-03-02T00:04:22;5.60;99.90
45945;DHT22;31655;48.972;10.686;2024-03-02T00:06:47;5.60;99.90
45945;DHT22;31655;48.972;10.686;2024-03-02T00:09:14;5.60;99.90
45945;DHT22;31655;48.972;10.686;2024-03-02T00:11:40;5.60;99.90
45945;DHT22;31655;48.972;10.686;2024-03-02T00:14:06;5.50;99.90
45945;DHT22;31655;48.972;10.686;2024-03-02T00:16:32;5.50;99.90
45945;DHT22;31655;48.972;10.686;2024-03-02T00:19:05;5.50;99.90
45945;DHT22;31655;48.972;10.686;2024-03-02T00:21:31;5.50;99.90
45945;DHT22;31655;48.972;10.686;2024-03-02T00:23:58;5.40;99.90
45945;DHT22;31655;48.972;10.686;2024-03-02T00:26:23;5.30;99.90
45945;DHT22;31655;48.972;10.686;2024-03-02T00:28:49;5.30;99.90
45945;DHT22;31655;48.972;10.686;2024-03-02T00:31:15;5.30;99.90
45945;DHT22;31655;48.972;10.686;2024-03-02T00:33:45;5.20;99.90
45945;DHT22;31655;48.972;10.686;2024-03-02T00:36:12;5.20;99.90
45945;DHT22;31655;48.972;10.686;2024-03-02T00:38:52;5.20;99.90
45945;DHT22;31655;48.972;10.686;2024-03-02T00:41:31;5.20;99.90
45945;DHT22;31655;48.972;10.686;2024-03-02T00:46:33;5.20;99.90
45945;DHT22;31655;48.972;10.686;2024-03-02T00:49:01;5.20;99.90
45945;DHT22;31655;48.972;10.686;2024-03-02T00:51:30;5.20;99.90
45945;DHT22;31655;48.972;10.686;2024-03-02T00:53:59;5.20;99.90
45945;DHT22;31655;48.972;10.686;2024-03-02T00:56:25;5.20;99.90
45945;DHT22;31655;48.972;10.686;2024-03-02T00:58:51;5.20;99.90
45945;DHT22;31655;48.972;10.686;2024-03-02T01:01:18;5.30;99.90
45945;DHT22;31655;48.972;10.686;2024-03-02T01:03:45;5.20;99.90
45945;DHT22;31655;48.972;10.686;2024-03-02T01:06:11;5.20;99.90
45945;DHT22;31655;48.972;10.686;2024-03-02T01:08:37;5.20;99.90
45945;DHT22;31655;48.972;10.686;2024-03-02T01:11:03;5.20;99.90
45945;DHT22;31655;48.972;10.686;2024-03-02T01:13:29;5.10;99.90
45945;DHT22;31655;48.972;10.686;2024-03-02T01:15:56;5.20;99.90
45945;DHT22;31655;48.972;10.686;2024-03-02T01:18:21;5.20;99.90
45945;DHT22;31655;48.972;10.686;2024-03-02T01:23:24;5.20;99.90
45945;DHT22;31655;48.972;10.686;2024-03-02T01:25:51;5.20;99.90
45945;DHT22;31655;48.972;10.686;2024-03-02T01:28:17;5.70;99.90
45945;DHT22;31655;48.972;10.686;2024-03-02T01:30:44;5.20;99.90
45945;DHT22;31655;48.972;10.686;2024-03-02T01:33:10;5.20;99.90
45945;DHT22;31655;48.972;10.686;2024-03-02T01:35:36;5.10;99.90
45945;DHT22;31655;48.972;10.686;2024-03-02T01:38:02;5.10;99.90
45945;DHT22;31655;48.972;10.686;2024-03-02T01:40:28;5.10;99.90
45945;DHT22;31655;48.972;10.686;2024-03-02T01:42:55;5.10;99.90
45945;DHT22;31655;48.972;10.686;2024-03-02T01:45:24;4.20;99.90
45945;DHT22;31655;48.972;10.686;2024-03-02T01:47:50;5.10;99.90
45945;DHT22;31655;48.972;10.686;2024-03-02T01:50:23;4.90;99.90
45945;DHT22;31655;48.972;10.686;2024-03-02T01:52:49;5.10;99.90
45945;DHT22;31655;48.972;10.686;2024-03-02T01:55:15;5.90;99.90
45945;DHT22;31655;48.972;10.686;2024-03-02T01:57:40;5.10;99.90
45945;DHT22;31655;48.972;10.686;2024-03-02T02:00:07;5.10;99.90
45945;DHT22;31655;48.972;10.686;2024-03-02T02:02:33;5.20;99.90
45945;DHT22;31655;48.972;10.686;2024-03-02T02:04:58;5.20;99.90
45945;DHT22;31655;48.972;10.686;2024-03-02T02:07:24;5.30;99.90
45945;DHT22;31655;48.972;10.686;2024-03-02T02:09:49;5.30;99.90
45945;DHT22;31655;48.972;10.686;2024-03-02T02:12:15;5.40;99.90
45945;DHT22;31655;48.972;10.686;2024-03-02T02:14:47;5.30;99.90
45945;DHT22;31655;48.972;10.686;2024-03-02T02:17:14;5.30;99.90
45945;DHT22;31655;48.972;10.686;2024-03-02T02:19:41;5.50;99.90
45945;DHT22;31655;48.972;10.686;2024-03-02T02:22:06;5.40;99.90
45945;DHT22;31655;48.972;10.686;2024-03-02T02:24:32;6.10;99.90
45945;DHT22;31655;48.972;10.686;2024-03-02T02:26:57;5.50;99.90
45945;DHT22;31655;48.972;10.686;2024-03-02T02:29:23;5.50;99.90
45945;DHT22;31655;48.972;10.686;2024-03-02T02:31:49;5.50;99.90
45945;DHT22;31655;48.972;10.686;2024-03-02T02:34:14;5.50;99.90
45945;DHT22;31655;48.972;10.686;2024-03-02T02:36:41;5.40;99.90
45945;DHT22;31655;48.972;10.686;2024-03-02T02:39:11;7.20;99.90
45945;DHT22;31655;48.972;10.686;2024-03-02T02:41:38;5.50;99.90
45945;DHT22;31655;48.972;10.686;2024-03-02T02:44:04;8.40;99.90
45945;DHT22;31655;48.972;10.686;2024-03-02T02:46:30;5.50;99.90
45945;DHT22;31655;48.972;10.686;2024-03-02T02:48:55;5.50;99.90
45945;DHT22;31655;48.972;10.686;2024-03-02T02:51:21;5.50;99.90
45945;DHT22;31655;48.972;10.686;2024-03-02T02:53:47;5.50;99.90
45945;DHT22;31655;48.972;10.686;2024-03-02T02:56:12;5.40;99.90
45945;DHT22;31655;48.972;10.686;2024-03-02T02:58:39;5.40;99.90
45945;DHT22;31655;48.972;10.686;2024-03-02T03:01:05;5.20;99.90
45945;DHT22;31655;48.972;10.686;2024-03-02T03:03:30;5.30;99.90
45945;DHT22;31655;48.972;10.686;2024-03-02T03:05:56;5.30;99.90
45945;DHT22;31655;48.972;10.686;2024-03-02T03:08:22;5.30;99.90
45945;DHT22;31655;48.972;10.686;2024-03-02T03:10:49;5.20;99.90
45945;DHT22;31655;48.972;10.686;2024-03-02T03:13:15;5.20;99.90
45945;DHT22;31655;48.972;10.686;2024-03-02T03:15:40;5.20;99.90
45945;DHT22;31655;48.972;10.686;2024-03-02T03:18:06;7.70;99.90
45945;DHT22;31655;48.972;10.686;2024-03-02T03:20:33;5.20;99.90
45945;DHT22;31655;48.972;10.686;2024-03-02T03:22:59;5.20;99.90
45945;DHT22;31655;48.972;10.686;2024-03-02T03:25:24;5.30;99.90
45945;DHT22;31655;48.972;10.686;2024-03-02T03:27:50;5.20;99.90
45945;DHT22;31655;48.972;10.686;2024-03-02T03:30:18;5.20;99.90
45945;DHT22;31655;48.972;10.686;2024-03-02T03:32:43;5.20;99.90
45945;DHT22;31655;48.972;10.686;2024-03-02T03:35:09;6.70;99.90
45945;DHT22;31655;48.972;10.686;2024-03-02T03:37:34;5.20;99.90
45945;DHT22;31655;48.972;10.686;2024-03-02T03:40:01;5.20;99.90
45945;DHT22;31655;48.972;10.686;2024-03-02T03:42:27;5.10;99.90
45945;DHT22;31655;48.972;10.686;2024-03-02T03:44:52;5.10;99.90
45945;DHT22;31655;48.972;10.686;2024-03-02T03:47:18;5.10;99.90
45945;DHT22;31655;48.972;10.686;2024-03-02T03:49:43;5.10;99.90
45945;DHT22;31655;48.972;10.686;2024-03-02T03:52:09;5.10;99.90
45945;DHT22;31655;48.972;10.686;2024-03-02T03:54:35;5.10;99.90
45945;DHT22;31655;48.972;10.686;2024-03-02T03:57:02;5.10;99.90
45945;DHT22;31655;48.972;10.686;2024-03-02T03:59:28;5.80;99.90
45945;DHT22;31655;48.972;10.686;2024-03-02T04:01:53;5.10;99.90
45945;DHT22;31655;48.972;10.686;2024-03-02T04:04:19;5.10;99.90
45945;DHT22;31655;48.972;10.686;2024-03-02T04:06:44;5.00;99.90
45945;DHT22;31655;48.972;10.686;2024-03-02T04:09:10;5.10;99.90
45945;DHT22;31655;48.972;10.686;2024-03-02T04:11:37;5.00;99.90
45945;DHT22;31655;48.972;10.686;2024-03-02T04:14:03;5.00;99.90
45945;DHT22;31655;48.972;10.686;2024-03-02T04:16:29;5.10;99.90
45945;DHT22;31655;48.972;10.686;2024-03-02T04:18:54;5.10;99.90
45945;DHT22;31655;48.972;10.686;2024-03-02T04:21:20;5.10;99.90
45945;DHT22;31655;48.972;10.686;2024-03-02T04:23:46;5.10;99.90
45945;DHT22;31655;48.972;10.686;2024-03-02T04:26:11;5.00;99.90
45945;DHT22;31655;48.972;10.686;2024-03-02T04:28:37;5.10;99.90
45945;DHT22;31655;48.972;10.686;2024-03-02T04:31:02;5.00;99.90
45945;DHT22;31655;48.972;10.686;2024-03-02T04:33:28;5.00;99.90
45945;DHT22;31655;48.972;10.686;2024-03-02T04:35:54;5.00;99.90
45945;DHT22;31655;48.972;10.686;2024-03-02T04:38:19;4.90;99.90
45945;DHT22;31655;48.972;10.686;2024-03-02T04:40:45;4.90;99.90
45945;DHT22;31655;48.972;10.686;2024-03-02T04:43:10;4.90;99.90
45945;DHT22;31655;48.972;10.686;2024-03-02T04:45:40;4.90;99.90
45945;DHT22;31655;48.972;10.686;2024-03-02T04:48:06;4.90;99.90
45945;DHT22;31655;48.972;10.686;2024-03-02T04:50:32;4.90;99.90
45945;DHT22;31655;48.972;10.686;2024-03-02T04:52:57;4.90;99.90
45945;DHT22;31655;48.972;10.686;2024-03-02T04:55:23;4.80;99.90
45945;DHT22;31655;48.972;10.686;2024-03-02T04:57:54;4.80;99.90
45945;DHT22;31655;48.972;10.686;2024-03-02T05:00:20;4.80;99.90
45945;DHT22;31655;48.972;10.686;2024-03-02T05:02:46;4.80;99.90
45945;DHT22;31655;48.972;10.686;2024-03-02T05:05:12;4.80;99.90
45945;DHT22;31655;48.972;10.686;2024-03-02T05:07:37;4.80;99.90
45945;DHT22;31655;48.972;10.686;2024-03-02T05:10:03;4.80;99.90
45945;DHT22;31655;48.972;10.686;2024-03-02T05:12:28;4.80;99.90
45945;DHT22;31655;48.972;10.686;2024-03-02T05:15:10;4.80;99.90
45945;DHT22;31655;48.972;10.686;2024-03-02T05:17:37;4.80;99.90
45945;DHT22;31655;48.972;10.686;2024-03-02T05:20:07;4.80;99.90
45945;DHT22;31655;48.972;10.686;2024-03-02T05:22:36;4.80;99.90
45945;DHT22;31655;48.972;10.686;2024-03-02T05:25:05;4.80;99.90
45945;DHT22;31655;48.972;10.686;2024-03-02T05:27:31;4.80;99.90
45945;DHT22;31655;48.972;10.686;2024-03-02T05:29:58;4.80;99.90
45945;DHT22;31655;48.972;10.686;2024-03-02T05:32:24;4.70;99.90
45945;DHT22;31655;48.972;10.686;2024-03-02T05:34:49;4.70;99.90
45945;DHT22;31655;48.972;10.686;2024-03-02T05:37:16;4.80;99.90
45945;DHT22;31655;48.972;10.686;2024-03-02T05:39:41;4.70;99.90
45945;DHT22;31655;48.972;10.686;2024-03-02T05:42:09;6.20;99.90
45945;DHT22;31655;48.972;10.686;2024-03-02T05:44:35;4.70;99.90
45945;DHT22;31655;48.972;10.686;2024-03-02T05:47:01;4.70;99.90
45945;DHT22;31655;48.972;10.686;2024-03-02T05:49:27;6.70;99.90
45945;DHT22;31655;48.972;10.686;2024-03-02T05:51:52;4.70;99.90
45945;DHT22;31655;48.972;10.686;2024-03-02T05:54:18;4.70;99.90
45945;DHT22;31655;48.972;10.686;2024-03-02T05:56:43;4.60;99.90
45945;DHT22;31655;48.972;10.686;2024-03-02T05:59:09;4.60;99.90
45945;DHT22;31655;48.972;10.686;2024-03-02T06:01:39;4.50;99.90
45945;DHT22;31655;48.972;10.686;2024-03-02T06:04:05;4.60;99.90
45945;DHT22;31655;48.972;10.686;2024-03-02T06:06:30;4.50;99.90
45945;DHT22;31655;48.972;10.686;2024-03-02T06:08:57;5.80;99.90
45945;DHT22;31655;48.972;10.686;2024-03-02T06:11:24;4.50;99.90
45945;DHT22;31655;48.972;10.686;2024-03-02T06:13:50;4.50;99.90
45945;DHT22;31655;48.972;10.686;2024-03-02T06:16:15;4.50;99.90
45945;DHT22;31655;48.972;10.686;2024-03-02T06:18:41;4.50;99.90
45945;DHT22;31655;48.972;10.686;2024-03-02T06:21:06;4.50;99.90
45945;DHT22;31655;48.972;10.686;2024-03-02T06:23:32;4.50;99.90
45945;DHT22;31655;48.972;10.686;2024-03-02T06:25:57;4.50;99.90
45945;DHT22;31655;48.972;10.686;2024-03-02T06:28:23;4.60;99.90
45945;DHT22;31655;48.972;10.686;2024-03-02T06:30:48;4.60;99.90
45945;DHT22;31655;48.972;10.686;2024-03-02T06:33:14;4.60;99.90
45945;DHT22;31655;48.972;10.686;2024-03-02T06:35:40;4.60;99.90
45945;DHT22;31655;48.972;10.686;2024-03-02T06:38:06;4.60;99.90
45945;DHT22;31655;48.972;10.686;2024-03-02T06:40:31;4.70;99.90
45945;DHT22;31655;48.972;10.686;2024-03-02T06:42:57;5.00;99.90
45945;DHT22;31655;48.972;10.686;2024-03-02T06:45:23;4.80;99.90
45945;DHT22;31655;48.972;10.686;2024-03-02T06:47:48;4.90;99.90
45945;DHT22;31655;48.972;10.686;2024-03-02T06:50:14;5.00;99.90
45945;DHT22;31655;48.972;10.686;2024-03-02T06:52:39;5.10;99.90
45945;DHT22;31655;48.972;10.686;2024-03-02T06:55:05;5.10;99.90
45945;DHT22;31655;48.972;10.686;2024-03-02T06:57:31;5.20;99.90
45945;DHT22;31655;48.972;10.686;2024-03-02T06:59:57;5.20;99.90
45945;DHT22;31655;48.972;10.686;2024-03-02T07:02:24;5.40;99.90
45945;DHT22;31655;48.972;10.686;2024-03-02T07:04:52;5.50;99.90
45945;DHT22;31655;48.972;10.686;2024-03-02T07:07:18;5.90;99.90
45945;DHT22;31655;48.972;10.686;2024-03-02T07:09:43;6.50;99.90
45945;DHT22;31655;48.972;10.686;2024-03-02T07:12:09;7.10;99.90
45945;DHT22;31655;48.972;10.686;2024-03-02T07:14:35;7.60;99.90
45945;DHT22;31655;48.972;10.686;2024-03-02T07:17:22;7.80;99.90
45945;DHT22;31655;48.972;10.686;2024-03-02T07:19:48;8.00;99.90
45945;DHT22;31655;48.972;10.686;2024-03-02T07:22:13;8.00;99.90
45945;DHT22;31655;48.972;10.686;2024-03-02T07:24:43;8.10;99.90
45945;DHT22;31655;48.972;10.686;2024-03-02T07:27:09;8.20;99.90
45945;DHT22;31655;48.972;10.686;2024-03-02T07:29:35;9.70;99.90
45945;DHT22;31655;48.972;10.686;2024-03-02T07:32:01;8.30;99.90
45945;DHT22;31655;48.972;10.686;2024-03-02T07:34:26;8.50;99.90
45945;DHT22;31655;48.972;10.686;2024-03-02T07:36:52;8.30;99.90
45945;DHT22;31655;48.972;10.686;2024-03-02T07:39:18;8.20;99.90
45945;DHT22;31655;48.972;10.686;2024-03-02T07:41:45;8.20;99.90
45945;DHT22;31655;48.972;10.686;2024-03-02T07:44:12;8.20;99.90
45945;DHT22;31655;48.972;10.686;2024-03-02T07:46:43;8.20;99.90
45945;DHT22;31655;48.972;10.686;2024-03-02T07:49:09;8.20;99.90
45945;DHT22;31655;48.972;10.686;2024-03-02T07:51:35;8.30;99.90
45945;DHT22;31655;48.972;10.686;2024-03-02T07:54:01;8.50;99.90
45945;DHT22;31655;48.972;10.686;2024-03-02T07:56:27;8.80;99.90
45945;DHT22;31655;48.972;10.686;2024-03-02T07:58:53;10.60;99.90
45945;DHT22;31655;48.972;10.686;2024-03-02T08:01:18;9.30;99.90
45945;DHT22;31655;48.972;10.686;2024-03-02T08:03:44;9.60;99.90
45945;DHT22;31655;48.972;10.686;2024-03-02T08:06:14;9.80;99.90
45945;DHT22;31655;48.972;10.686;2024-03-02T08:08:40;11.30;99.90
45945;DHT22;31655;48.972;10.686;2024-03-02T08:11:06;11.20;99.90
45945;DHT22;31655;48.972;10.686;2024-03-02T08:13:32;11.70;99.90
45945;DHT22;31655;48.972;10.686;2024-03-02T08:15:57;12.10;99.90
45945;DHT22;31655;48.972;10.686;2024-03-02T08:18:24;12.10;99.90
45945;DHT22;31655;48.972;10.686;2024-03-02T08:20:51;12.40;99.90
45945;DHT22;31655;48.972;10.686;2024-03-02T08:23:17;13.70;99.90
45945;DHT22;31655;48.972;10.686;2024-03-02T08:25:42;13.30;99.90
45945;DHT22;31655;48.972;10.686;2024-03-02T08:28:08;13.30;99.90
45945;DHT22;31655;48.972;10.686;2024-03-02T08:30:33;13.30;99.90
45945;DHT22;31655;48.972;10.686;2024-03-02T08:33:00;13.70;99.90
45945;DHT22;31655;48.972;10.686;2024-03-02T08:35:25;13.90;99.90
45945;DHT22;31655;48.972;10.686;2024-03-02T08:37:51;13.80;99.90
45945;DHT22;31655;48.972;10.686;2024-03-02T08:40:17;13.40;99.90
45945;DHT22;31655;48.972;10.686;2024-03-02T08:42:42;13.40;99.90
45945;DHT22;31655;48.972;10.686;2024-03-02T08:45:08;13.40;99.90
45945;DHT22;31655;48.972;10.686;2024-03-02T08:47:34;14.00;99.90
45945;DHT22;31655;48.972;10.686;2024-03-02T08:50:00;14.60;99.90
45945;DHT22;31655;48.972;10.686;2024-03-02T08:52:26;12.10;99.90
45945;DHT22;31655;48.972;10.686;2024-03-02T08:54:52;14.80;99.90
45945;DHT22;31655;48.972;10.686;2024-03-02T08:57:18;14.60;99.90
45945;DHT22;31655;48.972;10.686;2024-03-02T08:59:44;15.80;99.90
45945;DHT22;31655;48.972;10.686;2024-03-02T09:02:10;14.60;99.90
45945;DHT22;31655;48.972;10.686;2024-03-02T09:04:36;14.10;99.90
45945;DHT22;31655;48.972;10.686;2024-03-02T09:07:03;13.60;99.90
45945;DHT22;31655;48.972;10.686;2024-03-02T09:09:28;13.60;99.90
45945;DHT22;31655;48.972;10.686;2024-03-02T09:11:54;13.20;99.90
45945;DHT22;31655;48.972;10.686;2024-03-02T09:14:21;13.10;99.90
45945;DHT22;31655;48.972;10.686;2024-03-02T09:19:12;13.10;99.90
45945;DHT22;31655;48.972;10.686;2024-03-02T09:24:04;13.50;99.90
45945;DHT22;31655;48.972;10.686;2024-03-02T09:26:32;13.60;99.90
45945;DHT22;31655;48.972;10.686;2024-03-02T09:28:57;13.70;99.90
45945;DHT22;31655;48.972;10.686;2024-03-02T09:31:23;14.30;99.90
45945;DHT22;31655;48.972;10.686;2024-03-02T09:33:48;14.90;99.90
45945;DHT22;31655;48.972;10.686;2024-03-02T09:36:21;14.60;99.90
45945;DHT22;31655;48.972;10.686;2024-03-02T09:38:47;14.60;99.90
45945;DHT22;31655;48.972;10.686;2024-03-02T09:41:14;14.60;99.90
45945;DHT22;31655;48.972;10.686;2024-03-02T09:43:40;14.40;99.90
45945;DHT22;31655;48.972;10.686;2024-03-02T09:46:10;14.20;99.90
45945;DHT22;31655;48.972;10.686;2024-03-02T09:48:37;14.00;99.90
45945;DHT22;31655;48.972;10.686;2024-03-02T09:51:04;14.20;99.90
45945;DHT22;31655;48.972;10.686;2024-03-02T09:53:32;13.80;99.90
45945;DHT22;31655;48.972;10.686;2024-03-02T09:55:59;13.40;99.90
45945;DHT22;31655;48.972;10.686;2024-03-02T09:58:25;13.20;99.90
45945;DHT22;31655;48.972;10.686;2024-03-02T10:03:18;13.50;99.90
45945;DHT22;31655;48.972;10.686;2024-03-02T10:05:44;13.90;99.90
45945;DHT22;31655;48.972;10.686;2024-03-02T10:08:10;14.40;99.90
45945;DHT22;31655;48.972;10.686;2024-03-02T10:10:40;14.60;99.90
45945;DHT22;31655;48.972;10.686;2024-03-02T10:13:07;14.60;99.90
45945;DHT22;31655;48.972;10.686;2024-03-02T10:15:34;13.50;99.90
45945;DHT22;31655;48.972;10.686;2024-03-02T10:18:00;13.30;99.90
45945;DHT22;31655;48.972;10.686;2024-03-02T10:20:26;13.20;99.90
45945;DHT22;31655;48.972;10.686;2024-03-02T10:22:54;13.60;99.90
45945;DHT22;31655;48.972;10.686;2024-03-02T10:27:58;15.30;99.90
45945;DHT22;31655;48.972;10.686;2024-03-02T10:30:24;14.20;99.90
45945;DHT22;31655;48.972;10.686;2024-03-02T10:32:50;14.40;99.90
45945;DHT22;31655;48.972;10.686;2024-03-02T10:35:16;13.50;99.90
45945;DHT22;31655;48.972;10.686;2024-03-02T10:37:42;13.70;99.90
45945;DHT22;31655;48.972;10.686;2024-03-02T10:40:10;14.20;99.90
45945;DHT22;31655;48.972;10.686;2024-03-02T10:42:37;13.60;99.90
45945;DHT22;31655;48.972;10.686;2024-03-02T10:45:05;15.40;99.90
45945;DHT22;31655;48.972;10.686;2024-03-02T10:47:33;13.70;99.90
45945;DHT22;31655;48.972;10.686;2024-03-02T10:50:01;16.90;99.90
45945;DHT22;31655;48.972;10.686;2024-03-02T10:52:29;15.70;99.90
45945;DHT22;31655;48.972;10.686;2024-03-02T10:54:54;16.70;99.90
45945;DHT22;31655;48.972;10.686;2024-03-02T10:57:21;13.90;99.90
45945;DHT22;31655;48.972;10.686;2024-03-02T10:59:56;15.20;99.90
45945;DHT22;31655;48.972;10.686;2024-03-02T11:02:28;13.50;99.90
45945;DHT22;31655;48.972;10.686;2024-03-02T11:04:56;13.50;99.90
45945;DHT22;31655;48.972;10.686;2024-03-02T11:07:25;17.20;99.90
45945;DHT22;31655;48.972;10.686;2024-03-02T11:09:59;16.10;99.90
45945;DHT22;31655;48.972;10.686;2024-03-02T11:12:29;15.90;99.90
45945;DHT22;31655;48.972;10.686;2024-03-02T11:14:58;13.20;99.90
45945;DHT22;31655;48.972;10.686;2024-03-02T11:17:24;16.30;99.90
45945;DHT22;31655;48.972;10.686;2024-03-02T11:19:51;14.90;99.90
45945;DHT22;31655;48.972;10.686;2024-03-02T11:22:18;16.20;99.90
45945;DHT22;31655;48.972;10.686;2024-03-02T11:24:51;14.00;99.90
45945;DHT22;31655;48.972;10.686;2024-03-02T11:33:06;14.00;99.90
45945;DHT22;31655;48.972;10.686;2024-03-02T11:35:41;13.40;99.90
45945;DHT22;31655;48.972;10.686;2024-03-02T11:38:12;13.10;99.90
45945;DHT22;31655;48.972;10.686;2024-03-02T11:40:39;14.60;99.90
45945;DHT22;31655;48.972;10.686;2024-03-02T11:43:05;12.70;99.90
45945;DHT22;31655;48.972;10.686;2024-03-02T11:45:31;13.80;99.90
45945;DHT22;31655;48.972;10.686;2024-03-02T11:47:59;14.10;99.90
45945;DHT22;31655;48.972;10.686;2024-03-02T11:50:34;12.40;99.90
45945;DHT22;31655;48.972;10.686;2024-03-02T11:53:05;15.60;99.90
45945;DHT22;31655;48.972;10.686;2024-03-02T11:55:37;13.20;99.90
45945;DHT22;31655;48.972;10.686;2024-03-02T11:58:09;13.10;99.90
45945;DHT22;31655;48.972;10.686;2024-03-02T12:00:35;13.70;99.90
45945;DHT22;31655;48.972;10.686;2024-03-02T12:03:03;12.80;99.90
45945;DHT22;31655;48.972;10.686;2024-03-02T12:05:30;12.10;99.90
45945;DHT22;31655;48.972;10.686;2024-03-02T12:08:00;14.80;99.90
45945;DHT22;31655;48.972;10.686;2024-03-02T12:10:26;13.00;99.90
45945;DHT22;31655;48.972;10.686;2024-03-02T12:12:59;12.80;99.90
45945;DHT22;31655;48.972;10.686;2024-03-02T12:15:33;13.10;99.90
45945;DHT22;31655;48.972;10.686;2024-03-02T12:18:00;13.40;99.90
45945;DHT22;31655;48.972;10.686;2024-03-02T12:20:28;13.10;99.90
45945;DHT22;31655;48.972;10.686;2024-03-02T12:22:57;12.70;99.90
45945;DHT22;31655;48.972;10.686;2024-03-02T12:25:23;14.40;99.90
45945;DHT22;31655;48.972;10.686;2024-03-02T12:27:53;12.50;99.90
45945;DHT22;31655;48.972;10.686;2024-03-02T12:30:20;12.50;99.90
45945;DHT22;31655;48.972;10.686;2024-03-02T12:32:46;12.20;99.90
45945;DHT22;31655;48.972;10.686;2024-03-02T12:35:12;11.50;99.90
45945;DHT22;31655;48.972;10.686;2024-03-02T12:37:48;11.40;99.90
45945;DHT22;31655;48.972;10.686;2024-03-02T12:40:15;11.50;99.90
45945;DHT22;31655;48.972;10.686;2024-03-02T12:42:43;11.50;99.90
45945;DHT22;31655;48.972;10.686;2024-03-02T12:45:09;11.40;99.90
45945;DHT22;31655;48.972;10.686;2024-03-02T12:47:35;11.60;99.90
45945;DHT22;31655;48.972;10.686;2024-03-02T12:50:02;11.50;99.90
45945;DHT22;31655;48.972;10.686;2024-03-02T12:52:28;11.70;99.90
45945;DHT22;31655;48.972;10.686;2024-03-02T12:54:54;12.10;99.90
45945;DHT22;31655;48.972;10.686;2024-03-02T12:57:28;14.80;99.90
45945;DHT22;31655;48.972;10.686;2024-03-02T13:02:30;12.20;99.90
45945;DHT22;31655;48.972;10.686;2024-03-02T13:04:57;12.40;99.90
45945;DHT22;31655;48.972;10.686;2024-03-02T13:07:24;14.60;99.90
45945;DHT22;31655;48.972;10.686;2024-03-02T13:09:50;12.60;99.90
45945;DHT22;31655;48.972;10.686;2024-03-02T13:12:17;14.00;99.90
45945;DHT22;31655;48.972;10.686;2024-03-02T13:14:42;12.60;99.90
45945;DHT22;31655;48.972;10.686;2024-03-02T13:17:09;12.20;99.90
45945;DHT22;31655;48.972;10.686;2024-03-02T13:19:35;11.80;99.90
45945;DHT22;31655;48.972;10.686;2024-03-02T13:22:00;11.90;99.90
45945;DHT22;31655;48.972;10.686;2024-03-02T13:24:29;12.40;99.90
45945;DHT22;31655;48.972;10.686;2024-03-02T13:26:55;13.90;99.90
45945;DHT22;31655;48.972;10.686;2024-03-02T13:29:22;12.00;99.90
45945;DHT22;31655;48.972;10.686;2024-03-02T13:31:48;12.30;99.90
45945;DHT22;31655;48.972;10.686;2024-03-02T13:34:14;12.40;99.90
45945;DHT22;31655;48.972;10.686;2024-03-02T13:36:39;13.50;99.90
45945;DHT22;31655;48.972;10.686;2024-03-02T13:39:05;12.80;99.90
45945;DHT22;31655;48.972;10.686;2024-03-02T13:41:32;14.70;99.90
45945;DHT22;31655;48.972;10.686;2024-03-02T13:43:57;16.20;99.90
45945;DHT22;31655;48.972;10.686;2024-03-02T13:46:26;16.20;99.90
45945;DHT22;31655;48.972;10.686;2024-03-02T13:51:18;12.40;99.90
45945;DHT22;31655;48.972;10.686;2024-03-02T13:53:44;12.60;99.90
45945;DHT22;31655;48.972;10.686;2024-03-02T13:56:09;13.00;99.90
45945;DHT22;31655;48.972;10.686;2024-03-02T13:58:35;13.00;99.90
45945;DHT22;31655;48.972;10.686;2024-03-02T14:01:00;12.90;99.90
45945;DHT22;31655;48.972;10.686;2024-03-02T14:03:28;12.70;99.90
45945;DHT22;31655;48.972;10.686;2024-03-02T14:05:54;12.70;99.90
45945;DHT22;31655;48.972;10.686;2024-03-02T14:08:21;12.70;99.90
45945;DHT22;31655;48.972;10.686;2024-03-02T14:10:46;12.70;99.90
45945;DHT22;31655;48.972;10.686;2024-03-02T14:13:12;13.50;99.90
45945;DHT22;31655;48.972;10.686;2024-03-02T14:15:37;12.70;99.90
45945;DHT22;31655;48.972;10.686;2024-03-02T14:18:06;14.50;99.90
45945;DHT22;31655;48.972;10.686;2024-03-02T14:20:31;12.50;99.90
45945;DHT22;31655;48.972;10.686;2024-03-02T14:22:58;12.60;99.90
45945;DHT22;31655;48.972;10.686;2024-03-02T14:25:24;12.70;99.90
45945;DHT22;31655;48.972;10.686;2024-03-02T14:27:50;12.50;99.90
45945;DHT22;31655;48.972;10.686;2024-03-02T14:30:16;12.50;99.90
45945;DHT22;31655;48.972;10.686;2024-03-02T14:32:42;12.60;99.90
45945;DHT22;31655;48.972;10.686;2024-03-02T14:35:08;12.40;99.90
45945;DHT22;31655;48.972;10.686;2024-03-02T14:37:36;12.40;99.90
45945;DHT22;31655;48.972;10.686;2024-03-02T14:40:02;12.80;99.90
45945;DHT22;31655;48.972;10.686;2024-03-02T14:42:30;12.40;99.90
45945;DHT22;31655;48.972;10.686;2024-03-02T14:44:57;14.90;99.90
45945;DHT22;31655;48.972;10.686;2024-03-02T14:47:22;14.00;99.90
45945;DHT22;31655;48.972;10.686;2024-03-02T14:52:39;12.50;99.90
45945;DHT22;31655;48.972;10.686;2024-03-02T14:55:05;12.40;99.90
45945;DHT22;31655;48.972;10.686;2024-03-02T14:57:33;12.30;99.90
45945;DHT22;31655;48.972;10.686;2024-03-02T14:59:58;12.20;99.90
45945;DHT22;31655;48.972;10.686;2024-03-02T15:02:24;12.20;99.90
45945;DHT22;31655;48.972;10.686;2024-03-02T15:04:50;14.70;99.90
45945;DHT22;31655;48.972;10.686;2024-03-02T15:07:16;12.30;99.90
45945;DHT22;31655;48.972;10.686;2024-03-02T15:09:41;14.90;99.90
45945;DHT22;31655;48.972;10.686;2024-03-02T15:12:07;12.10;99.90
45945;DHT22;31655;48.972;10.686;2024-03-02T15:14:38;12.10;99.90
45945;DHT22;31655;48.972;10.686;2024-03-02T15:17:05;12.60;99.90
45945;DHT22;31655;48.972;10.686;2024-03-02T15:19:31;11.70;99.90
45945;DHT22;31655;48.972;10.686;2024-03-02T15:21:57;11.60;99.90
45945;DHT22;31655;48.972;10.686;2024-03-02T15:24:23;12.60;99.90
45945;DHT22;31655;48.972;10.686;2024-03-02T15:26:49;11.60;99.90
45945;DHT22;31655;48.972;10.686;2024-03-02T15:29:14;11.60;99.90
45945;DHT22;31655;48.972;10.686;2024-03-02T15:31:40;11.60;99.90
45945;DHT22;31655;48.972;10.686;2024-03-02T15:34:05;11.50;99.90
45945;DHT22;31655;48.972;10.686;2024-03-02T15:36:33;11.40;99.90
45945;DHT22;31655;48.972;10.686;2024-03-02T15:38:59;11.30;99.90
45945;DHT22;31655;48.972;10.686;2024-03-02T15:41:24;11.00;99.90
45945;DHT22;31655;48.972;10.686;2024-03-02T15:43:50;12.70;99.90
45945;DHT22;31655;48.972;10.686;2024-03-02T15:46:15;10.90;99.90
45945;DHT22;31655;48.972;10.686;2024-03-02T15:48:41;10.90;99.90